This is the latest recevied weather packets stored in our database for station/object AC5CM. If no packets are shown the sender has not sent any weather packets the latest 10 day(s).
| Time | Temp. | Humidity | Pressure | Rain* | Wind** | Luminosity | Snow |
|---|---|---|---|---|---|---|---|
| 1777500417 | 28.33° C | 72% | 1011.1 hPa | 0 mm | - | - | - |
| 1777500113 | 28.33° C | 72% | 1010.7 hPa | 0 mm | - | - | - |
| 1777499810 | 28.33° C | 72% | 1010.6 hPa | 0 mm | - | - | - |
| 1777499506 | 28.33° C | 72% | 1010.9 hPa | 0 mm | - | - | - |
| 1777499205 | 28.33° C | 71% | 1010.8 hPa | 0 mm | - | - | - |
| 1777498901 | 28.33° C | 71% | 1011 hPa | 0 mm | - | - | - |
| 1777498598 | 28.89° C | 70% | 1010.8 hPa | 0 mm | - | - | - |
| 1777498293 | 28.89° C | 70% | 1010.8 hPa | 0 mm | - | - | - |
| 1777497992 | 28.89° C | 69% | 1010.6 hPa | 0 mm | - | - | - |
| 1777497688 | 28.89° C | 69% | 1010.7 hPa | 0 mm | - | - | - |
| 1777497385 | 28.89° C | 69% | 1010.5 hPa | 0 mm | - | - | - |
| 1777497081 | 28.89° C | 69% | 1010.6 hPa | 0 mm | - | - | - |
| 1777496778 | 29.44° C | 68% | 1010.8 hPa | 0 mm | - | - | - |
| 1777496475 | 30° C | 67% | 1010.9 hPa | 0 mm | - | - | - |
| 1777496171 | 30° C | 67% | 1011 hPa | 0 mm | - | - | - |
| 1777495867 | 30° C | 66% | 1011 hPa | 0 mm | - | - | - |
| 1777495563 | 30° C | 66% | 1011.1 hPa | 0 mm | - | - | - |
| 1777495259 | 31.11° C | 64% | 1011.2 hPa | 0 mm | - | - | - |
| 1777494956 | 31.67° C | 62% | 1011.4 hPa | 0 mm | - | - | - |
| 1777494654 | 31.11° C | 63% | 1011.6 hPa | 0 mm | - | - | - |
| 1777494351 | 30.56° C | 63% | 1011.4 hPa | 0 mm | - | - | - |
| 1777494047 | 30.56° C | 63% | 1011.3 hPa | 0 mm | - | - | - |
| 1777493745 | 30.56° C | 67% | 1011.6 hPa | 0 mm | - | - | - |
| 1777493443 | 30° C | 67% | 1011.6 hPa | 0 mm | - | - | - |
| 1777493138 | 31.11° C | 63% | 1011.7 hPa | 0 mm | - | - | - |
* Rain latest hour (hover to see other rain measurements)
** Current wind speed in m/s (hover to see current wind gust speed)